Time;durP1;ratioP1;P1;durP2;ratioP2;P2;SDS_P1;SDS_P2;PMS_P1;PMS_P2;Temp;Humidity;BMP_temperature;BMP_pressure;BME280_temperature;BME280_humidity;BME280_pressure;Samples;Min_cycle;Max_cycle;Signal;HPM_P1;HPM_P2
2022/06/11 00:01:48;;;;;;;9.27;4.25;;;;;;;17.81;73.36;101002.63;5042486;28;20102;-66
2022/06/11 00:04:23;;;;;;;5.85;4.03;;;;;;;17.84;73.13;100997.94;5032087;28;21091;-67
2022/06/11 00:06:55;;;;;;;6.45;3.80;;;;;;;17.87;72.87;100997.75;5044244;28;20057;-67
2022/06/11 00:09:23;;;;;;;7.68;4.47;;;;;;;17.74;72.87;100974.56;5050918;28;20044;-67
2022/06/11 00:11:51;;;;;;;6.53;4.70;;;;;;;17.91;72.74;101005.56;5061176;28;20055;-67
2022/06/11 00:14:24;;;;;;;9.88;4.45;;;;;;;17.90;72.38;101003.84;5047999;28;20099;-67
2022/06/11 00:16:52;;;;;;;6.72;4.22;;;;;;;17.91;72.36;101001.06;5058153;28;20048;-67
2022/06/11 00:19:20;;;;;;;5.88;3.97;;;;;;;17.88;72.30;101002.13;5046476;28;20132;-66
2022/06/11 00:21:49;;;;;;;7.82;3.97;;;;;;;17.82;72.67;100989.13;5043408;28;20641;-67
2022/06/11 00:24:16;;;;;;;6.72;4.50;;;;;;;17.82;72.62;100999.00;5054909;28;20474;-66
2022/06/11 00:26:44;;;;;;;8.65;4.03;;;;;;;17.83;72.86;101001.56;5054620;28;20408;-67
2022/06/11 00:29:13;;;;;;;7.15;4.22;;;;;;;17.82;72.69;101001.69;5059770;28;20049;-66
2022/06/11 00:31:40;;;;;;;9.82;4.55;;;;;;;17.81;73.12;101006.19;5047082;28;20047;-67
2022/06/11 00:34:07;;;;;;;5.50;4.38;;;;;;;17.74;73.21;101004.03;5055503;28;20041;-67
2022/06/11 00:36:36;;;;;;;9.10;4.35;;;;;;;17.70;73.73;101000.69;5055780;28;20512;-67
2022/06/11 00:39:05;;;;;;;9.43;4.80;;;;;;;17.65;74.08;100994.78;5052488;28;20053;-67
2022/06/11 00:41:32;;;;;;;8.07;5.22;;;;;;;17.63;74.25;100996.66;5054418;28;20057;-67
2022/06/11 00:43:59;;;;;;;5.47;4.55;;;;;;;17.55;74.62;100996.31;5052870;28;20152;-69
2022/06/11 00:46:39;;;;;;;10.57;4.70;;;;;;;17.57;74.74;100997.09;5052508;28;22517;-68
2022/06/11 00:49:24;;;;;;;8.45;5.13;;;;;;;17.49;75.08;100989.53;5047843;28;20080;-67
2022/06/11 00:51:58;;;;;;;10.55;5.00;;;;;;;17.37;76.01;100995.72;5049422;28;20056;-67
2022/06/11 00:54:27;;;;;;;7.38;5.00;;;;;;;17.26;76.53;100994.72;5058252;28;20554;-67
2022/06/11 00:56:57;;;;;;;7.28;4.47;;;;;;;17.28;76.86;100987.44;5054374;28;20135;-66
2022/06/11 00:59:27;;;;;;;;;;;;;;;17.34;76.56;100989.69;5043478;28;20752;-66
2022/06/11 01:01:54;;;;;;;6.45;4.90;;;;;;;17.37;76.26;100989.50;5048465;28;19921;-68
2022/06/11 01:04:47;;;;;;;9.93;4.93;;;;;;;17.33;76.29;100979.94;5047495;28;20045;-67
2022/06/11 01:07:56;;;;;;;6.40;4.55;;;;;;;17.28;76.40;100982.94;5052306;28;20452;-67
2022/06/11 01:10:31;;;;;;;8.23;5.78;;;;;;;17.19;76.96;100987.06;5050317;28;20103;-67
2022/06/11 01:13:15;;;;;;;8.45;5.20;;;;;;;17.08;77.66;100978.88;5050766;28;20455;-66
2022/06/11 01:15:44;;;;;;;7.80;5.22;;;;;;;17.08;77.81;100978.03;5050656;28;20519;-67
2022/06/11 01:18:39;;;;;;;9.35;4.78;;;;;;;17.05;77.60;100975.53;5051290;28;20045;-67
2022/06/11 01:21:31;;;;;;;7.38;4.60;;;;;;;16.97;77.33;100977.88;5031848;28;20073;-66
2022/06/11 01:24:00;;;;;;;6.63;4.40;;;;;;;16.86;77.45;100967.84;5048892;28;20045;-67
2022/06/11 01:26:54;;;;;;;6.70;5.00;;;;;;;16.91;77.23;100963.06;5053729;28;20052;-67
2022/06/11 01:29:54;;;;;;;10.57;4.88;;;;;;;17.02;77.15;100979.25;5060350;28;20076;-66
2022/06/11 01:32:40;;;;;;;11.00;5.38;;;;;;;16.92;77.88;100982.63;5051189;28;20142;-66
2022/06/11 01:35:16;;;;;;;7.28;4.80;;;;;;;16.87;77.79;100990.09;5056554;28;20053;-66
2022/06/11 01:37:50;;;;;;;9.68;4.82;;;;;;;16.71;77.77;100958.97;5059021;28;20076;-67
2022/06/11 01:40:38;;;;;;;9.27;5.13;;;;;;;16.81;78.19;100986.00;5056860;28;20049;-67
2022/06/11 01:43:34;;;;;;;8.52;4.90;;;;;;;16.70;78.81;100980.47;5054874;28;20568;-66
2022/06/11 01:46:06;;;;;;;7.68;5.55;;;;;;;16.69;79.44;100971.56;5050913;28;20048;-67
2022/06/11 01:48:33;;;;;;;9.93;5.68;;;;;;;16.59;80.19;100973.09;5053881;28;20388;-68
2022/06/11 01:51:33;;;;;;;7.47;6.13;;;;;;;16.27;81.48;100963.53;5059925;28;20545;-68
2022/06/11 01:54:30;;;;;;;8.63;5.50;;;;;;;16.26;82.21;100977.84;5051733;28;20143;-67
2022/06/11 01:57:05;;;;;;;10.35;5.85;;;;;;;16.24;82.86;100980.59;5052743;28;20044;-68
2022/06/11 01:59:55;;;;;;;12.80;6.40;;;;;;;16.19;83.23;100984.53;5060074;28;20541;-67
2022/06/11 02:02:31;;;;;;;;;;;;;;;16.16;82.77;100990.06;5050183;28;20107;-68
2022/06/11 02:05:04;;;;;;;10.45;5.95;;;;;;;16.13;83.22;100977.75;5051945;28;19920;-67
2022/06/11 02:07:38;;;;;;;8.82;5.55;;;;;;;16.12;82.98;100992.91;5057147;28;20045;-66
2022/06/11 02:10:12;;;;;;;9.65;5.28;;;;;;;16.07;82.92;100986.97;5056877;28;20139;-67
2022/06/11 02:12:48;;;;;;;9.15;5.70;;;;;;;16.01;83.14;100984.69;5054962;28;20530;-66
2022/06/11 02:15:25;;;;;;;6.78;5.43;;;;;;;15.99;83.92;100985.72;5056550;28;20056;-66
2022/06/11 02:17:57;;;;;;;7.63;5.20;;;;;;;16.00;83.51;100982.97;5054718;28;20087;-67
2022/06/11 02:20:29;;;;;;;7.32;5.20;;;;;;;15.94;83.91;100985.13;5036480;28;20092;-66
2022/06/11 02:23:35;;;;;;;10.20;5.82;;;;;;;15.76;84.92;100973.75;5052940;28;20040;-66
2022/06/11 02:26:14;;;;;;;12.07;6.03;;;;;;;15.86;84.92;100990.97;5054217;28;20057;-66
2022/06/11 02:28:43;;;;;;;9.55;5.90;;;;;;;15.95;84.55;100982.38;5056552;28;20076;-67
2022/06/11 02:31:14;;;;;;;9.82;6.20;;;;;;;15.93;84.32;100986.09;5045602;28;20052;-66
2022/06/11 02:33:42;;;;;;;9.35;6.13;;;;;;;15.76;84.38;100961.25;5047403;28;20561;-67
2022/06/11 02:36:27;;;;;;;7.90;6.30;;;;;;;15.90;84.00;100986.31;5048324;28;20102;-67
2022/06/11 02:38:57;;;;;;;10.73;6.07;;;;;;;15.77;83.97;100976.31;5032268;28;20057;-67
2022/06/11 02:41:29;;;;;;;9.40;5.90;;;;;;;15.89;84.13;100984.56;5058321;28;20061;-67
2022/06/11 02:43:56;;;;;;;8.63;6.63;;;;;;;15.98;83.44;100994.69;5051274;28;20700;-67
2022/06/11 02:46:43;;;;;;;8.95;5.55;;;;;;;16.01;83.15;100984.69;5057581;28;20208;-67
2022/06/11 02:49:22;;;;;;;8.38;6.18;;;;;;;15.93;82.86;100970.91;5056851;28;20266;-68
2022/06/11 02:51:52;;;;;;;8.98;5.75;;;;;;;16.11;82.63;100990.34;5051919;28;20056;-67
2022/06/11 02:54:20;;;;;;;9.23;6.00;;;;;;;16.13;82.54;100994.63;5055811;28;20045;-67
2022/06/11 02:56:49;;;;;;;8.02;5.53;;;;;;;16.18;81.64;100997.03;5052153;28;20083;-67
2022/06/11 02:59:16;;;;;;;9.52;5.75;;;;;;;16.24;81.74;100993.13;5052544;28;20156;-67
2022/06/11 03:01:43;;;;;;;11.73;5.75;;;;;;;16.20;81.40;100978.25;5050603;28;20051;-66
2022/06/11 03:04:11;;;;;;;7.57;5.93;;;;;;;16.21;81.27;100980.81;5052099;28;20135;-66
2022/06/11 03:06:42;;;;;;;8.88;5.63;;;;;;;16.34;80.88;101000.50;5053252;28;20048;-69
2022/06/11 03:09:12;;;;;;;7.55;5.97;;;;;;;16.30;80.80;100982.06;5048069;28;20349;-67
2022/06/11 03:11:39;;;;;;;8.18;5.60;;;;;;;16.32;80.65;100989.03;5054867;28;20045;-67
2022/06/11 03:14:07;;;;;;;11.57;6.18;;;;;;;16.31;80.42;100991.78;5048500;28;20413;-71
2022/06/11 03:16:35;;;;;;;8.82;5.97;;;;;;;16.30;80.26;100988.25;5054072;28;20114;-67
2022/06/11 03:19:04;;;;;;;8.18;5.75;;;;;;;16.26;80.61;100988.53;5043592;28;20118;-67
2022/06/11 03:21:31;;;;;;;8.75;5.82;;;;;;;16.28;80.39;100997.31;5049202;28;20485;-68
2022/06/11 03:23:57;;;;;;;9.40;6.38;;;;;;;16.21;80.93;101002.19;5047625;28;20502;-67
2022/06/11 03:26:24;;;;;;;7.90;6.45;;;;;;;16.22;81.13;101016.38;5044651;28;20083;-68
2022/06/11 03:28:51;;;;;;;7.88;5.90;;;;;;;16.22;81.00;101009.22;5051775;28;20049;-68
2022/06/11 03:31:18;;;;;;;8.43;5.78;;;;;;;16.16;81.04;101012.28;5047853;28;20550;-66
2022/06/11 03:33:45;;;;;;;7.25;5.65;;;;;;;16.13;81.33;101016.00;5051149;28;20064;-66
2022/06/11 03:36:14;;;;;;;8.43;5.85;;;;;;;16.14;81.74;101025.75;5057573;28;20053;-65
2022/06/11 03:38:42;;;;;;;9.70;5.67;;;;;;;15.92;82.04;100995.91;5045541;28;20131;-66
2022/06/11 03:41:10;;;;;;;8.40;5.80;;;;;;;15.98;82.61;101022.28;5048741;28;20266;-66
2022/06/11 03:43:37;;;;;;;6.47;5.88;;;;;;;15.92;83.05;101016.41;5050235;28;20072;-67
2022/06/11 03:46:06;;;;;;;7.93;6.22;;;;;;;15.91;83.75;101012.88;5046593;28;20137;-68
2022/06/11 03:48:35;;;;;;;7.63;5.60;;;;;;;15.91;83.43;101015.56;5046409;28;20033;-66
2022/06/11 03:51:03;;;;;;;6.82;5.60;;;;;;;16.01;83.59;101021.22;5048100;28;20064;-66
2022/06/11 03:53:30;;;;;;;8.00;5.18;;;;;;;16.04;82.97;101026.41;5044985;28;20120;-66
2022/06/11 03:55:58;;;;;;;9.13;5.93;;;;;;;16.03;82.50;101014.84;5049210;28;20098;-66
2022/06/11 03:58:25;;;;;;;7.28;6.03;;;;;;;16.12;82.69;101033.00;5048891;28;20110;-66
2022/06/11 04:03:40;;;;;;;8.55;5.82;;;;;;;16.06;82.99;101036.00;5048377;28;20043;-66
2022/06/11 04:06:09;;;;;;;9.02;5.65;;;;;;;16.12;83.00;101033.00;5045745;28;20461;-67
2022/06/11 04:08:36;;;;;;;8.77;5.97;;;;;;;16.23;82.83;101040.34;5052906;28;20072;-67
2022/06/11 04:11:04;;;;;;;10.07;5.50;;;;;;;16.32;82.66;101034.47;5044761;28;20049;-67
2022/06/11 04:13:33;;;;;;;7.05;5.72;;;;;;;16.38;81.88;101034.06;5049094;28;20068;-66
2022/06/11 04:16:01;;;;;;;9.07;5.95;;;;;;;16.44;81.37;101030.19;5047557;28;20053;-66
2022/06/11 04:18:38;;;;;;;8.27;5.90;;;;;;;16.48;80.74;101029.06;5048579;28;20064;-66
2022/06/11 04:21:08;;;;;;;9.07;6.03;;;;;;;16.56;80.96;101031.22;5029856;28;20057;-66
2022/06/11 04:23:37;;;;;;;7.25;5.82;;;;;;;16.55;80.60;101017.00;5058242;28;20439;-66
2022/06/11 04:26:08;;;;;;;6.25;5.55;;;;;;;16.72;80.30;101042.72;5046575;28;20057;-67
2022/06/11 04:28:35;;;;;;;10.75;6.18;;;;;;;16.76;79.63;101033.56;5039763;28;20139;-66
2022/06/11 04:31:06;;;;;;;7.00;6.03;;;;;;;16.82;78.96;101031.38;5053049;28;20049;-66
2022/06/11 04:33:34;;;;;;;6.50;5.50;;;;;;;16.87;78.83;101032.88;5040395;28;20049;-67
2022/06/11 04:36:01;;;;;;;11.32;6.35;;;;;;;16.91;78.31;101029.06;5045682;28;20037;-67
2022/06/11 04:38:28;;;;;;;8.18;5.43;;;;;;;16.94;78.67;101029.75;5044233;28;20504;-66
2022/06/11 04:40:54;;;;;;;8.05;6.07;;;;;;;17.01;77.98;101024.84;5043944;28;20381;-66
2022/06/11 04:43:21;;;;;;;8.02;6.18;;;;;;;17.04;77.93;101030.00;5044396;28;20098;-67
2022/06/11 04:45:49;;;;;;;8.30;5.90;;;;;;;17.00;77.68;101023.97;5055567;28;20090;-66
2022/06/11 04:48:16;;;;;;;9.50;6.35;;;;;;;17.07;77.12;101025.31;5051172;28;20139;-67
2022/06/11 04:50:43;;;;;;;6.82;6.03;;;;;;;17.09;77.15;101039.47;5052909;28;20389;-67
2022/06/11 04:53:09;;;;;;;8.68;6.00;;;;;;;17.12;76.98;101035.75;5044925;28;20151;-67
2022/06/11 04:55:37;;;;;;;6.80;6.15;;;;;;;17.01;77.11;101009.66;5045578;28;20059;-67
2022/06/11 04:58:04;;;;;;;12.18;6.47;;;;;;;17.11;77.07;101037.56;5052643;28;20271;-67
2022/06/11 05:00:32;;;;;;;9.20;6.53;;;;;;;17.05;77.25;101032.59;5045742;28;20449;-66
2022/06/11 05:02:59;;;;;;;8.80;5.90;;;;;;;17.03;77.41;101026.47;5050374;28;20112;-66
2022/06/11 05:05:29;;;;;;;8.75;6.53;;;;;;;16.96;77.43;101016.28;5047610;28;20060;-66
2022/06/11 05:07:59;;;;;;;8.20;6.05;;;;;;;17.06;77.71;101031.63;5044783;28;20465;-67
2022/06/11 05:10:28;;;;;;;7.70;6.07;;;;;;;17.16;77.58;101035.44;5053991;28;21546;-67
2022/06/11 05:12:55;;;;;;;8.85;6.60;;;;;;;17.09;76.48;101020.75;5054287;28;20060;-67
2022/06/11 05:15:23;;;;;;;8.80;6.57;;;;;;;17.24;75.95;101042.13;5053042;28;20477;-67
2022/06/11 05:17:50;;;;;;;8.90;6.47;;;;;;;17.21;76.00;101023.56;5047039;28;20139;-67
2022/06/11 05:20:18;;;;;;;9.50;6.53;;;;;;;17.41;75.89;101048.09;5042741;28;20056;-67
2022/06/11 05:22:46;;;;;;;9.57;7.20;;;;;;;17.44;74.86;101039.88;5048681;28;20048;-67
2022/06/11 05:25:15;;;;;;;10.80;6.82;;;;;;;17.52;75.45;101050.06;5053539;28;20060;-67
2022/06/11 05:27:43;;;;;;;10.98;7.28;;;;;;;17.50;76.95;101047.50;5050220;28;20114;-67
2022/06/11 05:30:17;;;;;;;11.88;7.07;;;;;;;17.38;77.40;101044.75;5053663;28;20470;-67
2022/06/11 05:32:44;;;;;;;9.65;6.72;;;;;;;17.35;78.35;101051.16;5050408;28;20098;-67
2022/06/11 05:35:21;;;;;;;11.05;8.10;;;;;;;17.37;77.61;101054.63;5048678;28;20049;-66
2022/06/11 05:37:50;;;;;;;10.30;7.65;;;;;;;17.41;77.50;101055.28;5057871;28;20045;-67
2022/06/11 05:40:21;;;;;;;9.52;7.20;;;;;;;17.53;77.68;101067.84;5047155;28;20052;-67
2022/06/11 05:42:48;;;;;;;9.25;7.15;;;;;;;17.71;76.44;101068.50;5054958;28;20495;-67
2022/06/11 05:45:17;;;;;;;10.32;7.47;;;;;;;17.96;76.36;101073.94;5048526;28;20555;-68
2022/06/11 05:47:45;;;;;;;11.57;7.60;;;;;;;18.09;75.28;101055.25;5045907;28;20489;-67
2022/06/11 05:50:16;;;;;;;9.32;7.35;;;;;;;18.34;74.54;101073.19;5053272;28;20083;-66
2022/06/11 05:52:45;;;;;;;13.05;7.72;;;;;;;18.51;73.55;101071.06;5050533;28;20076;-70
2022/06/11 05:55:19;;;;;;;9.00;6.05;;;;;;;18.68;73.10;101075.28;5047266;28;20450;-67
2022/06/11 05:57:49;;;;;;;9.30;7.10;;;;;;;18.82;71.60;101066.28;5049075;28;20088;-67
2022/06/11 06:00:19;;;;;;;10.05;7.78;;;;;;;18.85;71.32;101068.75;5049284;28;20083;-67
2022/06/11 06:02:47;;;;;;;;;;;;;;;18.83;71.05;101067.97;5050443;28;20205;-67
2022/06/11 06:05:19;;;;;;;11.95;7.57;;;;;;;18.67;70.99;101054.78;5049993;28;19930;-67
2022/06/11 06:07:51;;;;;;;11.65;7.88;;;;;;;18.63;71.59;101039.00;5050122;28;20052;-69
2022/06/11 06:10:18;;;;;;;8.95;7.13;;;;;;;18.71;73.68;101052.75;5044501;28;20049;-70
2022/06/11 06:12:45;;;;;;;10.90;7.30;;;;;;;18.81;74.06;101060.03;5055154;28;20131;-70
2022/06/11 06:15:19;;;;;;;9.80;7.13;;;;;;;18.95;73.11;101051.00;5045300;28;20061;-71
2022/06/11 06:17:48;;;;;;;9.75;6.82;;;;;;;19.23;71.91;101058.78;5045663;28;20736;-69
2022/06/11 06:20:16;;;;;;;10.68;7.18;;;;;;;19.52;67.07;101054.00;5057666;28;20056;-70
2022/06/11 06:22:44;;;;;;;7.88;6.50;;;;;;;19.83;64.97;101054.44;5043014;28;20128;-68
2022/06/11 06:25:20;;;;;;;7.68;6.40;;;;;;;20.08;64.46;101061.47;5049153;28;20118;-68
2022/06/11 06:27:47;;;;;;;12.20;6.38;;;;;;;20.56;62.61;101062.25;5045248;28;20278;-69
2022/06/11 06:30:17;;;;;;;9.55;5.47;;;;;;;20.96;61.35;101049.19;5045969;28;20377;-68
2022/06/11 06:32:44;;;;;;;9.18;5.70;;;;;;;21.42;59.11;101067.91;5059660;28;20436;-69
2022/06/11 06:35:11;;;;;;;10.05;5.95;;;;;;;21.94;57.15;101059.06;5047861;28;20076;-69
2022/06/11 06:37:37;;;;;;;8.02;5.93;;;;;;;22.43;54.47;101065.72;5052941;28;20106;-68
2022/06/11 06:40:06;;;;;;;7.28;5.53;;;;;;;22.72;53.40;101045.13;5050230;28;20049;-68
2022/06/11 06:42:33;;;;;;;10.43;5.63;;;;;;;23.21;52.83;101061.59;5048230;28;20041;-68
2022/06/11 06:45:01;;;;;;;12.48;5.43;;;;;;;23.56;50.70;101061.16;5049116;28;20072;-68
2022/06/11 06:47:27;;;;;;;9.52;5.50;;;;;;;23.91;50.39;101060.63;5050757;28;20542;-67
2022/06/11 06:49:54;;;;;;;7.45;5.45;;;;;;;24.29;48.34;101057.94;5047557;28;20692;-68
2022/06/11 06:52:21;;;;;;;9.60;5.53;;;;;;;24.73;47.62;101060.97;5052811;28;20453;-68
2022/06/11 06:54:48;;;;;;;6.75;4.88;;;;;;;25.09;46.69;101056.59;5043685;28;20500;-69
2022/06/11 06:57:16;;;;;;;7.28;4.70;;;;;;;25.43;45.91;101059.56;5049454;28;20178;-68
2022/06/11 06:59:42;;;;;;;8.15;4.28;;;;;;;25.60;44.33;101038.91;5049717;28;20561;-69
2022/06/11 07:02:15;;;;;;;8.07;4.38;;;;;;;25.60;44.84;101030.75;5045238;28;20060;-69
2022/06/11 07:04:42;;;;;;;7.20;4.68;;;;;;;25.93;43.43;101065.38;5054115;28;20272;-69
2022/06/11 07:07:14;;;;;;;7.50;4.35;;;;;;;26.06;43.74;101068.56;5045841;28;20060;-68
2022/06/11 07:09:40;;;;;;;8.18;4.35;;;;;;;26.26;43.37;101065.69;5044293;28;20500;-69
2022/06/11 07:12:07;;;;;;;6.32;4.05;;;;;;;26.28;42.99;101052.81;5048548;28;20065;-69
2022/06/11 07:14:34;;;;;;;6.53;3.55;;;;;;;26.20;42.26;101059.84;5045843;28;20596;-69
2022/06/11 07:17:05;;;;;;;10.40;4.00;;;;;;;26.11;43.69;101068.94;5046492;28;20566;-68
2022/06/11 07:19:36;;;;;;;5.65;3.47;;;;;;;25.79;44.72;101071.34;5053075;28;20440;-68
2022/06/11 07:22:13;;;;;;;7.60;4.03;;;;;;;25.80;44.67;101064.91;5046757;28;20106;-68
2022/06/11 07:24:42;;;;;;;6.28;3.65;;;;;;;26.04;43.93;101057.00;5025963;28;20112;-68
2022/06/11 07:27:14;;;;;;;6.32;3.60;;;;;;;25.98;43.60;101059.47;5053286;28;20528;-68
2022/06/11 07:29:45;;;;;;;6.78;3.42;;;;;;;25.26;44.85;101063.06;5047869;28;20045;-68
2022/06/11 07:32:15;;;;;;;7.05;3.00;;;;;;;24.75;45.35;101059.81;5046674;28;20179;-67
2022/06/11 07:34:43;;;;;;;7.35;3.28;;;;;;;24.30;46.47;101069.59;5051490;28;20080;-67
2022/06/11 07:37:10;;;;;;;7.22;3.35;;;;;;;23.97;47.57;101047.38;5050932;28;20052;-67
2022/06/11 07:39:37;;;;;;;11.82;3.38;;;;;;;24.17;47.77;101066.31;5047351;28;20048;-68
2022/06/11 07:42:05;;;;;;;5.60;3.20;;;;;;;24.33;46.94;101062.06;5045348;28;20484;-67
2022/06/11 07:44:32;;;;;;;7.88;3.33;;;;;;;24.20;48.07;101072.31;5041855;28;20469;-68
2022/06/11 07:46:58;;;;;;;6.38;3.30;;;;;;;24.40;48.61;101065.03;5047841;28;20053;-67
2022/06/11 07:49:25;;;;;;;6.35;3.10;;;;;;;24.88;46.86;101058.63;5047553;28;20052;-68
2022/06/11 07:51:52;;;;;;;7.28;2.67;;;;;;;25.46;44.71;101062.81;5043534;28;20057;-68
2022/06/11 07:54:19;;;;;;;5.93;2.88;;;;;;;25.71;44.54;101053.13;5043506;28;20053;-68
2022/06/11 07:56:46;;;;;;;6.10;3.15;;;;;;;25.49;45.07;101051.69;5047731;28;20079;-67
2022/06/11 07:59:13;;;;;;;5.05;2.58;;;;;;;25.28;44.66;101059.22;5054872;28;20115;-67
2022/06/11 08:01:39;;;;;;;4.68;2.80;;;;;;;25.03;45.98;101059.88;5047225;28;20472;-67
2022/06/11 08:04:06;;;;;;;6.13;2.58;;;;;;;25.17;45.18;101054.00;5047850;28;20107;-67
2022/06/11 08:06:33;;;;;;;5.00;2.25;;;;;;;24.97;45.57;101065.91;5059804;28;20064;-68
2022/06/11 08:09:01;;;;;;;7.25;2.53;;;;;;;25.06;45.57;101059.59;5047155;28;20114;-68
2022/06/11 08:11:27;;;;;;;5.72;2.20;;;;;;;25.55;43.12;101050.19;5046256;28;20493;-68
2022/06/11 08:13:54;;;;;;;4.05;2.20;;;;;;;25.70;43.25;101047.84;5051904;28;20135;-67
2022/06/11 08:16:21;;;;;;;3.35;1.95;;;;;;;25.74;44.11;101054.66;5047653;28;20040;-68
2022/06/11 08:18:48;;;;;;;3.90;1.55;;;;;;;25.64;42.53;101054.75;5053945;28;20458;-67
2022/06/11 08:21:14;;;;;;;4.20;1.60;;;;;;;25.33;43.53;101061.47;5043187;28;20052;-67
2022/06/11 08:23:42;;;;;;;5.30;1.40;;;;;;;25.20;43.85;101053.66;5036692;28;20530;-66
2022/06/11 08:26:09;;;;;;;6.53;1.85;;;;;;;25.09;45.38;101056.59;5046683;28;20055;-67
2022/06/11 08:28:36;;;;;;;6.32;2.03;;;;;;;25.22;44.19;101054.38;5049799;28;20570;-68
2022/06/11 08:31:04;;;;;;;5.05;1.40;;;;;;;25.56;43.84;101048.34;5049988;28;20122;-67
2022/06/11 08:33:33;;;;;;;6.25;2.05;;;;;;;25.52;43.45;101050.50;5047384;28;20136;-68
2022/06/11 08:35:59;;;;;;;5.43;1.60;;;;;;;25.64;43.06;101062.88;5051427;28;20076;-67
2022/06/11 08:38:26;;;;;;;4.07;1.63;;;;;;;25.59;42.56;101058.88;5058391;28;20413;-67
2022/06/11 08:40:55;;;;;;;3.40;1.27;;;;;;;25.88;42.21;101059.56;5045794;28;20091;-68
2022/06/11 08:43:30;;;;;;;4.72;1.33;;;;;;;26.06;40.68;101040.56;5050708;28;20480;-67
2022/06/11 08:46:12;;;;;;;3.65;1.73;;;;;;;25.66;41.86;101035.59;5053010;28;20067;-68
2022/06/11 08:48:42;;;;;;;5.72;1.50;;;;;;;25.60;41.12;101047.03;5049056;28;20036;-67
2022/06/11 08:51:19;;;;;;;4.18;1.42;;;;;;;25.31;41.83;101039.94;5046446;28;20518;-68
2022/06/11 08:53:48;;;;;;;4.10;1.20;;;;;;;25.04;41.83;101040.78;5055620;28;20083;-67
2022/06/11 08:56:45;;;;;;;5.67;1.67;;;;;;;25.25;41.94;101045.09;5050744;28;20607;-68
2022/06/11 08:59:42;;;;;;;4.32;1.27;;;;;;;25.73;41.09;101042.13;5046930;28;20049;-68
2022/06/11 09:02:33;;;;;;;1.30;0.60;;;;;;;26.27;38.16;101040.25;5027531;28;20091;-68
2022/06/11 09:05:10;;;;;;;1.90;1.02;;;;;;;26.68;37.60;101034.09;5049771;28;20090;-68
2022/06/11 09:08:05;;;;;;;2.67;1.15;;;;;;;26.76;38.15;101019.72;5026675;28;20045;-68
2022/06/11 09:10:48;;;;;;;4.03;1.05;;;;;;;26.40;37.83;101033.41;5024188;28;20045;-67
2022/06/11 09:13:31;;;;;;;4.15;1.20;;;;;;;26.40;37.89;101029.84;5026802;28;20053;-68
2022/06/11 09:16:05;;;;;;;4.00;1.00;;;;;;;26.86;36.70;101039.47;5019717;28;20459;-69
2022/06/11 09:18:56;;;;;;;3.72;0.90;;;;;;;26.50;37.04;101042.28;5029163;28;20547;-69
2022/06/11 09:22:07;;;;;;;3.22;0.90;;;;;;;26.27;38.68;101035.66;5018794;28;20092;-68
2022/06/11 09:24:50;;;;;;;3.35;1.00;;;;;;;26.14;38.52;101036.03;5018772;28;20350;-69
2022/06/11 09:27:29;;;;;;;2.78;1.05;;;;;;;25.79;38.42;101031.50;5027384;28;20080;-68
2022/06/11 09:30:03;;;;;;;3.25;1.05;;;;;;;25.72;39.41;101024.13;5022477;28;20062;-68
2022/06/11 09:33:01;;;;;;;2.92;1.20;;;;;;;25.77;39.20;101027.25;5025147;28;20057;-69
2022/06/11 09:35:47;;;;;;;3.58;1.10;;;;;;;25.91;39.20;101029.41;5025296;28;20058;-67
2022/06/11 09:38:26;;;;;;;2.75;0.73;;;;;;;25.72;38.35;101022.28;5020953;28;20446;-67
2022/06/11 09:41:17;;;;;;;7.28;4.82;;;;;;;25.38;38.34;101027.47;5026950;28;20050;-68
2022/06/11 09:43:59;;;;;;;2.63;1.20;;;;;;;25.61;38.89;101027.03;5026486;28;20071;-68
2022/06/11 09:46:52;;;;;;;2.90;1.10;;;;;;;26.04;38.80;101031.72;5022314;28;20068;-67
2022/06/11 09:49:40;;;;;;;2.67;1.10;;;;;;;26.41;38.24;101029.69;5029534;28;20056;-67
2022/06/11 09:52:09;;;;;;;3.13;1.27;;;;;;;26.61;37.03;101032.16;5023921;28;20053;-68
2022/06/11 09:54:50;;;;;;;2.10;0.80;;;;;;;26.58;36.70;101027.06;5027404;28;20499;-68
2022/06/11 09:57:19;;;;;;;3.00;1.02;;;;;;;26.37;37.48;101031.00;5024100;28;20049;-67
2022/06/11 10:00:03;;;;;;;2.90;1.20;;;;;;;26.09;38.05;101005.81;5030696;28;20041;-67
2022/06/11 10:02:54;;;;;;;3.97;1.50;;;;;;;26.36;38.22;101039.31;5028035;28;20041;-68
2022/06/11 10:05:43;;;;;;;1.83;1.10;;;;;;;26.56;38.06;101029.94;5027845;28;20076;-67
2022/06/11 10:08:39;;;;;;;3.50;1.30;;;;;;;26.85;36.34;101018.75;5050687;28;20200;-67
2022/06/11 10:11:24;;;;;;;3.22;1.02;;;;;;;26.90;35.88;101032.69;5044496;28;20053;-67
2022/06/11 10:16:52;;;;;;;2.38;1.00;;;;;;;26.16;37.53;101023.16;5045361;28;20083;-68
2022/06/11 10:19:25;;;;;;;2.22;0.90;;;;;;;26.28;37.30;101031.09;5047543;28;20045;-68
2022/06/11 10:22:13;;;;;;;1.85;0.90;;;;;;;26.53;36.65;101035.69;5044217;28;20056;-67
2022/06/11 10:24:57;;;;;;;4.20;1.00;;;;;;;26.62;36.65;101023.84;5021999;28;20071;-67
2022/06/11 10:27:37;;;;;;;5.32;1.13;;;;;;;26.59;37.02;101017.91;5047991;28;20512;-68
2022/06/11 10:30:33;;;;;;;3.08;0.88;;;;;;;26.74;37.20;101022.59;5048248;28;20041;-67
2022/06/11 10:33:06;;;;;;;2.97;1.13;;;;;;;26.83;38.13;101024.31;5043054;28;20041;-68
2022/06/11 10:35:59;;;;;;;5.82;1.40;;;;;;;26.81;36.68;101029.06;5046875;28;20091;-68
2022/06/11 10:38:48;;;;;;;4.63;1.08;;;;;;;26.74;36.77;101027.19;5046150;28;20037;-68
2022/06/11 10:41:44;;;;;;;2.85;0.82;;;;;;;26.35;36.88;100986.84;5046754;28;20053;-68
2022/06/11 10:44:29;;;;;;;3.58;1.13;;;;;;;26.36;37.89;101037.44;5037222;28;20500;-67
2022/06/11 10:46:56;;;;;;;1.55;0.68;;;;;;;26.54;36.43;101031.97;5042937;28;20468;-67
2022/06/11 10:49:23;;;;;;;1.85;0.80;;;;;;;26.53;37.88;101024.84;5046608;28;20045;-67
2022/06/11 10:52:03;;;;;;;4.72;0.95;;;;;;;26.98;36.30;101012.88;5050535;28;20177;-70
2022/06/11 10:54:30;;;;;;;;;;;;;;;27.22;36.14;101026.59;5048738;28;20073;-68
2022/06/11 10:57:04;;;;;;;3.13;1.00;;;;;;;26.98;35.98;101007.44;5045342;28;20047;-68
2022/06/11 10:59:41;;;;;;;3.28;1.10;;;;;;;26.63;36.24;100992.97;5051986;28;20076;-68
2022/06/11 11:02:18;;;;;;;4.65;1.30;;;;;;;26.43;37.48;101015.94;5046189;28;20049;-68
2022/06/11 11:04:57;;;;;;;2.63;1.17;;;;;;;26.27;38.40;101018.50;5041436;28;20053;-68
2022/06/11 11:07:25;;;;;;;5.35;1.27;;;;;;;26.39;38.79;101020.00;5045910;28;20045;-67
2022/06/11 11:09:58;;;;;;;3.75;1.75;;;;;;;26.86;37.47;101006.84;5045696;28;20107;-67
2022/06/11 11:12:32;;;;;;;1.92;1.20;;;;;;;27.35;37.27;101010.66;5042979;28;20053;-67
2022/06/11 11:15:16;;;;;;;4.90;1.15;;;;;;;27.28;35.84;101011.47;5047282;28;20041;-68
2022/06/11 11:17:49;;;;;;;1.92;1.00;;;;;;;27.19;36.97;101010.59;5048350;28;20449;-67
2022/06/11 11:20:34;;;;;;;2.70;1.13;;;;;;;27.31;37.63;101011.13;5042658;28;20493;-68
2022/06/11 11:23:05;;;;;;;1.58;0.95;;;;;;;27.28;35.70;100995.16;5046368;28;20547;-68
2022/06/11 11:25:49;;;;;;;3.60;1.27;;;;;;;27.35;36.36;101001.63;5048204;28;20080;-67
2022/06/11 11:28:24;;;;;;;2.50;1.20;;;;;;;27.48;35.83;100999.28;5040425;28;20198;-69
2022/06/11 11:31:03;;;;;;;3.92;0.98;;;;;;;28.02;34.91;101006.00;5045342;28;20489;-67
2022/06/11 11:33:33;;;;;;;2.38;1.20;;;;;;;28.45;33.58;100996.63;5046007;28;20048;-68
2022/06/11 11:36:02;;;;;;;3.17;1.10;;;;;;;28.76;33.90;101007.63;5046614;28;20045;-68
2022/06/11 11:38:34;;;;;;;3.17;1.17;;;;;;;28.61;34.10;100998.47;5050207;28;20128;-68
2022/06/11 11:41:03;;;;;;;2.58;1.17;;;;;;;28.21;34.25;100981.16;5049275;28;20060;-68
2022/06/11 11:43:41;;;;;;;3.83;1.20;;;;;;;27.73;35.90;100970.25;5046524;28;20052;-68
2022/06/11 11:46:26;;;;;;;3.05;1.33;;;;;;;27.81;34.54;101006.50;5042501;28;20048;-68
2022/06/11 11:48:56;;;;;;;3.72;1.55;;;;;;;27.29;35.15;100997.69;5039397;28;20142;-67
2022/06/11 11:51:32;;;;;;;3.83;1.10;;;;;;;27.38;35.73;100995.88;5048149;28;20519;-68
2022/06/11 11:54:03;;;;;;;2.03;1.00;;;;;;;27.56;35.81;100983.84;5048397;28;20118;-68
2022/06/11 11:56:36;;;;;;;3.33;1.25;;;;;;;27.53;35.56;100986.03;5042297;28;20057;-66
2022/06/11 11:59:12;;;;;;;2.38;0.95;;;;;;;27.14;36.52;100988.47;5041279;28;20095;-67